createdAt,value
2017-09-12T00:00:07.191Z,2.40
2017-09-12T00:02:35.854Z,1.93
2017-09-12T00:05:04.191Z,1.60
2017-09-12T00:07:32.558Z,1.90
2017-09-12T00:10:00.899Z,2.37
2017-09-12T00:12:29.284Z,1.90
2017-09-12T00:14:57.611Z,1.97
2017-09-12T00:17:26.137Z,2.73
2017-09-12T00:19:54.498Z,2.47
2017-09-12T00:22:22.830Z,2.27
2017-09-12T00:24:51.515Z,1.70
2017-09-12T00:27:19.846Z,1.80
2017-09-12T00:29:48.211Z,1.80
2017-09-12T00:32:16.562Z,2.00
2017-09-12T00:34:44.898Z,2.23
2017-09-12T00:37:13.229Z,1.80
2017-09-12T00:39:41.787Z,2.00
2017-09-12T00:42:10.146Z,1.70
2017-09-12T00:44:38.643Z,1.90
2017-09-12T00:47:06.994Z,1.80
2017-09-12T00:49:35.331Z,2.17
2017-09-12T00:52:03.663Z,1.70
2017-09-12T00:54:31.990Z,2.17
2017-09-12T00:57:00.339Z,2.00
2017-09-12T00:59:28.706Z,1.57
2017-09-12T01:01:57.123Z,2.10
2017-09-12T01:04:25.470Z,1.77
2017-09-12T01:06:53.864Z,1.90
2017-09-12T01:09:22.252Z,1.40
2017-09-12T01:11:50.583Z,1.90
2017-09-12T01:14:18.915Z,2.00
2017-09-12T01:16:47.247Z,1.90
2017-09-12T01:19:15.631Z,2.03
2017-09-12T01:21:43.976Z,2.50
2017-09-12T01:24:12.362Z,1.97
2017-09-12T01:26:40.697Z,2.40
2017-09-12T01:29:09.034Z,2.17
2017-09-12T01:31:37.403Z,1.70
2017-09-12T01:34:05.759Z,1.93
2017-09-12T01:36:34.094Z,1.90
2017-09-12T01:39:02.427Z,1.60
2017-09-12T01:41:30.795Z,1.90
2017-09-12T01:43:59.131Z,2.03
2017-09-12T01:46:27.526Z,2.40
2017-09-12T01:48:55.842Z,1.60
2017-09-12T01:51:24.202Z,2.17
2017-09-12T01:53:52.546Z,2.03
2017-09-12T01:56:20.877Z,2.50
2017-09-12T01:58:49.345Z,2.97
2017-09-12T02:01:17.724Z,2.20
2017-09-12T02:03:46.058Z,2.60
2017-09-12T02:06:14.389Z,1.67
2017-09-12T02:08:42.722Z,2.10
2017-09-12T02:11:11.087Z,2.33
2017-09-12T02:13:39.472Z,2.10
2017-09-12T02:16:07.798Z,2.33
2017-09-12T02:18:36.146Z,1.80
2017-09-12T02:21:04.486Z,1.70
2017-09-12T02:23:32.822Z,2.47
2017-09-12T02:26:01.158Z,1.83
2017-09-12T02:28:29.558Z,1.90
2017-09-12T02:30:57.894Z,2.50
2017-09-12T02:33:26.846Z,2.40
2017-09-12T02:35:55.199Z,2.17
2017-09-12T02:38:23.540Z,2.47
2017-09-12T02:40:51.862Z,2.03
2017-09-12T02:43:20.203Z,2.60
2017-09-12T02:45:48.571Z,2.27
2017-09-12T02:48:16.908Z,2.73
2017-09-12T02:50:45.246Z,3.80
2017-09-12T02:53:13.578Z,2.00
2017-09-12T02:55:41.936Z,2.30
2017-09-12T02:58:10.318Z,1.73
2017-09-12T03:00:38.675Z,2.77
2017-09-12T03:03:07.011Z,2.10
2017-09-12T03:05:35.374Z,1.87
2017-09-12T03:08:03.712Z,1.97
2017-09-12T03:10:32.202Z,2.13
2017-09-12T03:13:00.554Z,2.33
2017-09-12T03:15:29.222Z,2.30
2017-09-12T03:17:57.574Z,2.83
2017-09-12T03:20:25.938Z,2.20
2017-09-12T03:22:54.274Z,1.83
2017-09-12T03:25:22.611Z,2.60
2017-09-12T03:27:50.945Z,2.00
2017-09-12T03:30:19.331Z,2.00
2017-09-12T03:32:47.663Z,2.03
2017-09-12T03:35:16.042Z,2.00
2017-09-12T03:37:44.383Z,2.43
2017-09-12T03:40:12.730Z,2.47
2017-09-12T03:42:41.098Z,2.30
2017-09-12T03:45:09.429Z,1.93
2017-09-12T03:47:37.762Z,2.37
2017-09-12T03:50:06.123Z,2.37
2017-09-12T03:52:34.462Z,1.70
2017-09-12T03:55:02.798Z,2.00
2017-09-12T03:57:31.134Z,1.80
2017-09-12T03:59:59.466Z,2.50
2017-09-12T04:02:27.803Z,2.60
2017-09-12T04:04:56.162Z,2.30
2017-09-12T04:07:24.686Z,1.67
2017-09-12T04:09:53.045Z,1.90
2017-09-12T04:12:21.378Z,2.30
2017-09-12T04:14:49.722Z,2.10
2017-09-12T04:17:18.075Z,1.87
2017-09-12T04:19:46.435Z,1.93
2017-09-12T04:22:14.766Z,2.30
2017-09-12T04:24:43.117Z,1.80
2017-09-12T04:27:11.465Z,1.60
2017-09-12T04:29:39.794Z,1.80
2017-09-12T04:32:08.163Z,1.80
2017-09-12T04:34:36.494Z,2.30
2017-09-12T04:37:04.827Z,2.10
2017-09-12T04:39:33.763Z,2.37
2017-09-12T04:42:02.126Z,1.70
2017-09-12T04:44:30.462Z,2.10
2017-09-12T04:46:58.806Z,2.00
2017-09-12T04:49:27.149Z,1.77
2017-09-12T04:51:55.509Z,1.80
2017-09-12T04:54:24.840Z,2.10
2017-09-12T04:56:53.345Z,1.90
2017-09-12T04:59:21.676Z,1.77
2017-09-12T05:01:50.000Z,2.70
2017-09-12T05:04:18.335Z,1.67
2017-09-12T05:06:46.697Z,2.40
2017-09-12T05:09:15.058Z,2.20
2017-09-12T05:11:43.414Z,2.00
2017-09-12T05:14:11.751Z,2.40
2017-09-12T05:16:40.078Z,2.10
2017-09-12T05:19:08.414Z,2.37
2017-09-12T05:21:36.774Z,2.40
2017-09-12T05:24:05.107Z,2.30
2017-09-12T05:26:33.471Z,2.73
2017-09-12T05:29:01.878Z,3.00
2017-09-12T05:31:30.238Z,2.77
2017-09-12T05:33:58.627Z,2.60
2017-09-12T05:36:26.966Z,2.67
2017-09-12T05:38:55.322Z,3.00
2017-09-12T05:41:23.670Z,2.67
2017-09-12T05:43:52.003Z,2.00
2017-09-12T05:46:20.422Z,2.87
2017-09-12T05:48:48.754Z,1.97
2017-09-12T05:51:17.927Z,1.67
2017-09-12T05:53:46.435Z,1.93
2017-09-12T05:56:14.768Z,2.53
2017-09-12T05:58:43.107Z,1.80
2017-09-12T06:01:11.449Z,1.40
2017-09-12T06:03:39.821Z,1.60
2017-09-12T06:06:08.163Z,1.60
2017-09-12T06:08:36.496Z,1.80
2017-09-12T06:11:04.832Z,1.80
2017-09-12T06:13:33.198Z,1.60
2017-09-12T06:16:01.748Z,1.70
2017-09-12T06:18:30.166Z,1.63
2017-09-12T06:20:58.525Z,1.63
2017-09-12T06:23:26.873Z,1.60
2017-09-12T06:25:55.200Z,1.70
2017-09-12T06:28:23.531Z,1.40
2017-09-12T06:30:51.863Z,1.43
2017-09-12T06:33:20.198Z,1.83
2017-09-12T06:35:48.548Z,1.70
2017-09-12T06:38:16.957Z,2.17
2017-09-12T06:40:45.341Z,1.97
2017-09-12T06:43:13.683Z,1.93
2017-09-12T06:45:42.036Z,2.50
2017-09-12T06:48:10.379Z,2.33
2017-09-12T06:50:38.715Z,2.20
2017-09-12T06:53:07.059Z,2.20
2017-09-12T06:55:35.407Z,2.73
2017-09-12T06:58:03.758Z,2.47
2017-09-12T07:00:32.111Z,2.73
2017-09-12T07:03:00.494Z,2.50
2017-09-12T07:05:28.824Z,3.20
2017-09-12T07:07:57.158Z,4.03
2017-09-12T07:10:25.494Z,4.00
2017-09-12T07:12:53.822Z,4.07
2017-09-12T07:15:22.154Z,3.60
2017-09-12T07:17:50.488Z,3.23
2017-09-12T07:20:18.865Z,3.93
2017-09-12T07:22:47.579Z,3.10
2017-09-12T07:25:15.917Z,2.83
2017-09-12T07:27:44.258Z,2.37
2017-09-12T07:30:12.594Z,2.03
2017-09-12T07:32:40.930Z,2.50
2017-09-12T07:35:09.339Z,2.33
2017-09-12T07:37:37.764Z,2.00
2017-09-12T07:40:06.091Z,2.40
2017-09-12T07:42:34.427Z,1.90
2017-09-12T07:45:02.859Z,2.50
2017-09-12T07:47:31.238Z,2.20
2017-09-12T07:49:59.598Z,2.23
2017-09-12T07:52:27.922Z,2.00
2017-09-12T07:54:56.265Z,2.30
2017-09-12T07:57:24.619Z,2.33
2017-09-12T07:59:52.955Z,2.53
2017-09-12T08:02:21.284Z,2.50
2017-09-12T08:04:49.612Z,2.83
2017-09-12T08:07:17.966Z,3.90
2017-09-12T08:09:46.298Z,3.63
2017-09-12T08:12:14.662Z,3.17
2017-09-12T08:14:43.052Z,3.67
2017-09-12T08:17:11.375Z,3.90
2017-09-12T08:19:39.850Z,4.13
2017-09-12T08:22:08.211Z,4.70
2017-09-12T08:24:36.546Z,4.03
2017-09-12T08:27:04.878Z,3.80
2017-09-12T08:29:33.298Z,4.23
2017-09-12T08:32:01.634Z,4.00
2017-09-12T08:34:30.015Z,3.60
2017-09-12T08:36:58.395Z,3.50
2017-09-12T08:39:26.726Z,3.07
2017-09-12T08:41:55.057Z,2.80
2017-09-12T08:44:23.406Z,3.63
2017-09-12T08:46:51.743Z,3.40
2017-09-12T08:49:20.091Z,3.07
2017-09-12T08:51:48.426Z,2.77
2017-09-12T08:54:16.758Z,3.43
2017-09-12T08:56:45.094Z,4.63
2017-09-12T08:59:13.647Z,4.50
2017-09-12T09:01:42.006Z,5.10
2017-09-12T09:04:10.326Z,5.43
2017-09-12T09:06:38.662Z,6.90
2017-09-12T09:09:07.230Z,5.30
2017-09-12T09:11:35.769Z,3.70
2017-09-12T09:14:04.169Z,3.50
2017-09-12T09:16:32.567Z,4.30
2017-09-12T09:19:00.899Z,3.97
2017-09-12T09:21:30.118Z,4.33
2017-09-12T09:23:58.452Z,4.33
2017-09-12T09:26:26.790Z,5.23
2017-09-12T09:28:55.122Z,5.17
2017-09-12T09:31:23.464Z,4.27
2017-09-12T09:33:51.793Z,4.03
2017-09-12T09:36:20.203Z,3.97
2017-09-12T09:38:48.541Z,4.30
2017-09-12T09:41:16.894Z,3.30
2017-09-12T09:43:45.225Z,3.33
2017-09-12T09:46:13.558Z,3.60
2017-09-12T09:48:41.894Z,3.43
2017-09-12T09:51:10.280Z,3.40
2017-09-12T09:53:38.734Z,3.40
2017-09-12T09:56:07.071Z,3.50
2017-09-12T09:58:35.416Z,3.67
2017-09-12T10:01:03.774Z,3.20
2017-09-12T10:03:32.131Z,4.23
2017-09-12T10:06:00.527Z,3.30
2017-09-12T10:08:28.883Z,3.43
2017-09-12T10:10:57.227Z,2.60
2017-09-12T10:13:25.566Z,3.53
2017-09-12T10:15:53.926Z,3.03
2017-09-12T10:18:22.260Z,2.97
2017-09-12T10:20:50.638Z,2.90
2017-09-12T10:23:18.995Z,3.20
2017-09-12T10:25:47.346Z,3.70
2017-09-12T10:28:15.734Z,4.47
2017-09-12T10:30:44.099Z,4.50
2017-09-12T10:33:12.462Z,5.10
2017-09-12T10:35:40.798Z,5.10
2017-09-12T10:38:09.157Z,4.43
2017-09-12T10:40:37.491Z,5.13
2017-09-12T10:43:05.826Z,5.00
2017-09-12T10:45:34.178Z,5.17
2017-09-12T10:48:02.655Z,4.67
2017-09-12T10:50:31.034Z,5.60
2017-09-12T10:52:59.391Z,4.50
2017-09-12T10:55:27.726Z,3.60
2017-09-12T10:57:56.075Z,3.37
2017-09-12T11:00:24.411Z,3.30
2017-09-12T11:02:52.770Z,3.07
2017-09-12T11:05:21.119Z,3.07
2017-09-12T11:07:49.450Z,2.97
2017-09-12T11:10:18.165Z,2.40
2017-09-12T11:12:46.544Z,2.40
2017-09-12T11:15:14.903Z,2.40
2017-09-12T11:17:43.267Z,2.47
2017-09-12T11:20:11.649Z,2.77
2017-09-12T11:22:40.238Z,2.80
2017-09-12T11:25:08.562Z,2.20
2017-09-12T11:27:36.943Z,2.57
2017-09-12T11:30:05.307Z,2.90
2017-09-12T11:32:33.648Z,3.17
2017-09-12T11:35:02.083Z,3.80
2017-09-12T11:37:30.455Z,3.87
2017-09-12T11:39:58.797Z,3.63
2017-09-12T11:42:27.163Z,3.57
2017-09-12T11:44:55.536Z,3.00
2017-09-12T11:47:23.877Z,3.30
2017-09-12T11:49:52.211Z,2.80
2017-09-12T11:52:20.604Z,3.90
2017-09-12T11:54:48.977Z,3.67
2017-09-12T11:57:17.330Z,3.90
2017-09-12T11:59:45.773Z,3.83
2017-09-12T12:02:15.318Z,4.23
2017-09-12T12:04:43.697Z,3.80
2017-09-12T12:07:12.074Z,3.27
2017-09-12T12:09:40.459Z,3.63
2017-09-12T12:12:08.967Z,2.90
2017-09-12T12:14:37.375Z,3.13
2017-09-12T12:17:05.713Z,2.80
2017-09-12T12:19:34.143Z,2.80
2017-09-12T12:22:02.472Z,2.97
2017-09-12T12:24:30.169Z,3.23
2017-09-12T12:26:58.303Z,3.40
2017-09-12T12:29:26.633Z,3.67
2017-09-12T12:31:54.990Z,3.80
2017-09-12T12:34:23.322Z,3.70
2017-09-12T12:36:51.695Z,3.67
2017-09-12T12:39:20.076Z,3.83
2017-09-12T12:41:48.440Z,4.20
2017-09-12T12:44:16.783Z,3.73
2017-09-12T12:46:45.246Z,3.87
2017-09-12T12:49:13.583Z,3.70
2017-09-12T12:51:41.921Z,3.13
2017-09-12T12:54:10.358Z,3.83
2017-09-12T12:56:38.719Z,4.20
2017-09-12T12:59:07.053Z,5.13
2017-09-12T13:01:35.386Z,2.13
2017-09-12T13:04:03.765Z,2.20
2017-09-12T13:06:32.098Z,2.00
2017-09-12T13:09:00.523Z,1.83
2017-09-12T13:11:28.859Z,2.50
2017-09-12T13:13:57.839Z,2.30
2017-09-12T13:16:26.275Z,3.13
2017-09-12T13:18:54.605Z,2.10
2017-09-12T13:21:22.986Z,2.80
2017-09-12T13:23:51.337Z,3.00
2017-09-12T13:26:19.850Z,2.10
2017-09-12T13:28:48.177Z,2.83
2017-09-12T13:31:16.616Z,3.30
2017-09-12T13:33:44.975Z,2.57
2017-09-12T13:36:13.311Z,2.00
2017-09-12T13:38:41.649Z,1.90
2017-09-12T13:41:10.002Z,1.57
2017-09-12T13:43:38.361Z,1.60
2017-09-12T13:46:06.959Z,1.67
2017-09-12T13:48:35.374Z,1.80
2017-09-12T13:51:03.743Z,2.20
2017-09-12T13:53:32.583Z,2.33
2017-09-12T13:56:00.938Z,2.20
2017-09-12T13:58:29.335Z,2.80
2017-09-12T14:00:58.871Z,2.70
2017-09-12T14:03:27.811Z,3.33
2017-09-12T14:05:56.168Z,4.07
2017-09-12T14:08:24.520Z,3.93
2017-09-12T14:10:52.907Z,3.67
2017-09-12T14:13:23.138Z,4.17
2017-09-12T14:15:51.682Z,4.43
2017-09-12T14:18:22.402Z,3.57
2017-09-12T14:20:52.680Z,3.43
2017-09-12T14:23:27.395Z,3.03
2017-09-12T14:25:58.967Z,2.90
2017-09-12T14:28:27.294Z,3.50
2017-09-12T14:30:55.634Z,3.50
2017-09-12T14:33:23.989Z,3.20
2017-09-12T14:35:52.321Z,5.67
2017-09-12T14:38:22.674Z,3.57
2017-09-12T14:40:51.004Z,3.40
2017-09-12T14:43:19.578Z,3.67
2017-09-12T14:45:47.914Z,4.40
2017-09-12T14:48:16.248Z,4.80
2017-09-12T14:50:44.591Z,3.23
2017-09-12T14:53:13.028Z,4.10
2017-09-12T14:55:41.427Z,3.70
2017-09-12T14:58:09.890Z,4.40
2017-09-12T15:00:38.251Z,2.60
2017-09-12T15:03:06.647Z,2.70
2017-09-12T15:05:35.073Z,2.63
2017-09-12T15:08:04.372Z,1.83
2017-09-12T15:10:32.733Z,1.77
2017-09-12T15:13:01.091Z,1.53
2017-09-12T15:15:29.490Z,1.53
2017-09-12T15:17:57.823Z,1.97
2017-09-12T15:20:26.187Z,1.70
2017-09-12T15:22:54.510Z,2.00
2017-09-12T15:25:22.845Z,1.80
2017-09-12T15:27:51.206Z,1.60
2017-09-12T15:30:19.535Z,1.97
2017-09-12T15:32:47.870Z,1.87
2017-09-12T15:35:16.206Z,2.10
2017-09-12T15:37:44.542Z,2.03
2017-09-12T15:40:12.890Z,1.80
2017-09-12T15:42:41.210Z,1.90
2017-09-12T15:45:09.767Z,1.57
2017-09-12T15:47:38.091Z,1.53
2017-09-12T15:50:06.474Z,1.83
2017-09-12T15:52:34.810Z,1.40
2017-09-12T15:55:03.171Z,1.30
2017-09-12T15:57:31.493Z,1.40
2017-09-12T15:59:59.902Z,1.23
2017-09-12T16:02:28.226Z,1.33
2017-09-12T16:04:56.596Z,1.00
2017-09-12T16:07:25.251Z,1.20
2017-09-12T16:09:53.583Z,1.10
2017-09-12T16:12:21.943Z,1.20
2017-09-12T16:14:50.271Z,1.40
2017-09-12T16:17:18.661Z,1.40
2017-09-12T16:19:47.661Z,1.40
2017-09-12T16:22:16.035Z,1.90
2017-09-12T16:24:44.410Z,1.67
2017-09-12T16:27:13.071Z,1.60
2017-09-12T16:29:41.426Z,1.90
2017-09-12T16:32:09.897Z,2.13
2017-09-12T16:34:38.267Z,2.03
2017-09-12T16:37:06.607Z,2.23
2017-09-12T16:39:34.942Z,2.03
2017-09-12T16:42:03.331Z,2.50
2017-09-12T16:44:31.706Z,2.70
2017-09-12T16:47:00.337Z,2.27
2017-09-12T16:49:29.265Z,2.20
2017-09-12T16:51:57.767Z,2.10
2017-09-12T16:54:26.123Z,2.87
2017-09-12T16:56:54.456Z,2.37
2017-09-12T16:59:22.787Z,2.70
2017-09-12T17:01:51.114Z,2.20
2017-09-12T17:04:19.486Z,2.70
2017-09-12T17:06:47.835Z,2.63
2017-09-12T17:09:16.170Z,2.47
2017-09-12T17:11:44.517Z,2.77
2017-09-12T17:14:12.903Z,2.97
2017-09-12T17:16:41.281Z,2.80
2017-09-12T17:19:09.639Z,2.50
2017-09-12T17:21:37.979Z,2.63
2017-09-12T17:24:06.326Z,2.97
2017-09-12T17:26:34.710Z,3.00
2017-09-12T17:29:03.090Z,2.93
2017-09-12T17:31:31.436Z,2.50
2017-09-12T17:33:59.858Z,2.93
2017-09-12T17:36:28.244Z,3.17
2017-09-12T17:38:56.570Z,2.43
2017-09-12T17:41:25.041Z,2.90
2017-09-12T17:43:53.375Z,2.90
2017-09-12T17:46:21.723Z,2.87
2017-09-12T17:48:50.084Z,2.73
2017-09-12T17:51:18.419Z,2.87
2017-09-12T17:53:51.320Z,2.83
2017-09-12T17:56:20.002Z,3.47
2017-09-12T17:58:48.468Z,3.30
2017-09-12T18:01:16.814Z,3.30
2017-09-12T18:03:45.162Z,3.70
2017-09-12T18:06:13.490Z,4.10
2017-09-12T18:08:43.970Z,4.43
2017-09-12T18:11:12.444Z,4.17
2017-09-12T18:13:40.848Z,4.03
2017-09-12T18:16:09.174Z,3.80
2017-09-12T18:18:37.786Z,3.90
2017-09-12T18:21:06.139Z,4.20
2017-09-12T18:23:34.475Z,3.80
2017-09-12T18:26:02.840Z,3.10
2017-09-12T18:28:31.606Z,3.50
2017-09-12T18:30:59.991Z,3.60
2017-09-12T18:33:28.611Z,3.37
2017-09-12T18:35:57.093Z,3.37
2017-09-12T18:38:25.460Z,4.00
2017-09-12T18:40:53.808Z,4.20
2017-09-12T18:43:22.153Z,4.00
2017-09-12T18:45:51.047Z,3.40
2017-09-12T18:48:20.082Z,3.37
2017-09-12T18:50:48.453Z,3.47
2017-09-12T18:53:17.847Z,3.43
2017-09-12T18:55:46.457Z,3.50
2017-09-12T18:58:15.170Z,5.20
2017-09-12T19:00:43.507Z,4.10
2017-09-12T19:03:11.847Z,3.33
2017-09-12T19:05:40.371Z,3.23
2017-09-12T19:08:08.730Z,4.00
2017-09-12T19:10:37.843Z,4.10
2017-09-12T19:13:06.183Z,3.97
2017-09-12T19:15:34.799Z,3.90
2017-09-12T19:18:03.179Z,3.90
2017-09-12T19:20:31.535Z,4.53
2017-09-12T19:22:59.998Z,5.60
2017-09-12T19:25:28.328Z,4.93
2017-09-12T19:27:56.661Z,4.80
2017-09-12T19:30:25.030Z,4.30
2017-09-12T19:32:53.358Z,4.60
2017-09-12T19:35:21.686Z,4.27
2017-09-12T19:37:50.049Z,4.23
2017-09-12T19:40:18.401Z,3.50
2017-09-12T19:42:46.722Z,3.53
2017-09-12T19:45:15.051Z,3.90
2017-09-12T19:47:43.379Z,2.90
2017-09-12T19:50:11.738Z,3.20
2017-09-12T19:52:40.089Z,2.43
2017-09-12T19:55:08.439Z,2.70
2017-09-12T19:57:36.810Z,2.50
2017-09-12T20:00:05.143Z,2.73
2017-09-12T20:02:33.470Z,3.20
2017-09-12T20:05:01.979Z,2.60
2017-09-12T20:07:30.367Z,3.10
2017-09-12T20:09:58.701Z,3.03
2017-09-12T20:12:27.030Z,3.17
2017-09-12T20:14:55.360Z,3.20
2017-09-12T20:17:23.685Z,3.50
2017-09-12T20:19:52.155Z,3.63
2017-09-12T20:22:20.495Z,4.00
2017-09-12T20:24:48.819Z,3.73
2017-09-12T20:27:17.158Z,5.00
2017-09-12T20:29:45.483Z,4.80
2017-09-12T20:32:14.012Z,4.43
2017-09-12T20:34:42.335Z,4.20
2017-09-12T20:37:10.667Z,4.63
2017-09-12T20:39:39.000Z,4.20
2017-09-12T20:42:07.661Z,4.43
2017-09-12T20:44:35.987Z,4.10
2017-09-12T20:47:04.319Z,4.40
2017-09-12T20:49:32.662Z,4.30
2017-09-12T20:52:00.996Z,3.97
2017-09-12T20:54:29.327Z,4.50
2017-09-12T20:56:57.662Z,4.50
2017-09-12T20:59:25.999Z,4.23
2017-09-12T21:01:54.335Z,4.10
2017-09-12T21:04:22.671Z,4.13
2017-09-12T21:06:50.990Z,4.37
2017-09-12T21:09:19.341Z,3.60
2017-09-12T21:11:47.667Z,3.87
2017-09-12T21:14:16.024Z,3.37
2017-09-12T21:16:44.383Z,2.97
2017-09-12T21:19:12.703Z,3.80
2017-09-12T21:21:41.060Z,3.23
2017-09-12T21:24:09.386Z,2.83
2017-09-12T21:26:37.706Z,3.33
2017-09-12T21:29:06.040Z,3.47
2017-09-12T21:31:34.433Z,3.50
2017-09-12T21:34:02.758Z,3.07
2017-09-12T21:36:31.074Z,3.77
2017-09-12T21:38:59.406Z,3.30
2017-09-12T21:41:27.731Z,3.70
2017-09-12T21:43:56.059Z,3.13
2017-09-12T21:46:24.386Z,3.33
2017-09-12T21:48:52.714Z,3.53
2017-09-12T21:51:21.047Z,3.43
2017-09-12T21:53:49.403Z,2.93
2017-09-12T21:56:17.730Z,3.30
2017-09-12T21:58:46.115Z,3.10
2017-09-12T22:01:14.440Z,3.17
2017-09-12T22:03:42.759Z,2.80
2017-09-12T22:06:11.096Z,3.00
2017-09-12T22:08:39.445Z,3.20
2017-09-12T22:11:07.774Z,2.63
2017-09-12T22:13:36.115Z,2.70
2017-09-12T22:16:04.446Z,3.37
2017-09-12T22:18:32.783Z,3.00
2017-09-12T22:21:01.114Z,2.90
2017-09-12T22:23:29.437Z,2.63
2017-09-12T22:25:57.822Z,2.70
2017-09-12T22:28:26.152Z,2.97
2017-09-12T22:30:54.503Z,3.00
2017-09-12T22:33:22.830Z,2.60
2017-09-12T22:35:51.167Z,2.53
2017-09-12T22:38:19.520Z,2.53
2017-09-12T22:40:47.843Z,2.90
2017-09-12T22:43:16.179Z,2.80
2017-09-12T22:45:44.526Z,2.60
2017-09-12T22:48:12.939Z,2.47
2017-09-12T22:50:41.294Z,3.33
2017-09-12T22:53:09.930Z,2.83
2017-09-12T22:55:38.278Z,2.83
2017-09-12T22:58:06.654Z,2.80
2017-09-12T23:00:34.990Z,3.27
2017-09-12T23:03:03.334Z,3.30
2017-09-12T23:05:31.789Z,3.20
2017-09-12T23:08:00.147Z,2.83
2017-09-12T23:10:28.578Z,3.33
2017-09-12T23:12:56.966Z,2.80
2017-09-12T23:15:25.354Z,2.60
2017-09-12T23:17:53.750Z,3.13
2017-09-12T23:20:22.078Z,2.73
2017-09-12T23:22:50.415Z,2.57
2017-09-12T23:25:18.818Z,2.70
2017-09-12T23:27:47.157Z,3.57
2017-09-12T23:30:15.606Z,2.90
2017-09-12T23:32:43.946Z,3.33
2017-09-12T23:35:12.282Z,2.60
2017-09-12T23:37:40.630Z,3.23
2017-09-12T23:40:08.996Z,2.77
2017-09-12T23:42:37.351Z,2.40
2017-09-12T23:45:05.707Z,2.50
2017-09-12T23:47:34.059Z,2.67
2017-09-12T23:50:02.394Z,3.17
2017-09-12T23:52:30.818Z,2.30
2017-09-12T23:54:59.326Z,2.80
2017-09-12T23:57:27.698Z,3.37
2017-09-12T23:59:56.035Z,2.70
